Time;durP1;ratioP1;P1;durP2;ratioP2;P2;SDS_P1;SDS_P2;PMS_P1;PMS_P2;Temp;Humidity;BMP_temperature;BMP_pressure;BME280_temperature;BME280_humidity;BME280_pressure;Samples;Min_cycle;Max_cycle;Signal;HPM_P1;HPM_P2
2022/05/23 00:00:05;;;;;;;8.63;4.32;;;410.50;2355.20;;;;;;5051469;28;20021;-77
2022/05/23 00:02:31;;;;;;;12.30;4.43;;;435.30;2355.20;;;;;;5051758;28;20495;-77
2022/05/23 00:04:57;;;;;;;5.32;4.40;;;435.40;2355.20;;;;;;5050738;28;20025;-77
2022/05/23 00:07:32;;;;;;;5.68;3.25;;;435.50;2355.20;;;;;;5050684;28;20025;-77
2022/05/23 00:09:59;;;;;;;7.78;4.20;;;410.50;2355.20;;;;;;5051311;28;20035;-75
2022/05/23 00:12:25;;;;;;;7.32;4.00;;;435.20;2355.20;;;;;;5050223;28;20049;-77
2022/05/23 00:14:51;;;;;;;6.65;4.18;;;435.20;2355.20;;;;;;5051540;28;20522;-76
2022/05/23 00:17:19;;;;;;;5.93;3.63;;;410.40;2355.20;;;;;;5050200;28;20029;-76
2022/05/23 00:19:45;;;;;;;6.00;3.42;;;410.40;2355.20;;;;;;5050449;28;20423;-77
2022/05/23 00:22:11;;;;;;;4.85;3.67;;;410.30;2355.20;;;;;;5050463;28;20047;-78
2022/05/23 00:24:37;;;;;;;8.32;4.85;;;410.40;2355.20;;;;;;5050416;28;20116;-77
2022/05/23 00:27:05;;;;;;;5.65;3.70;;;410.40;2355.20;;;;;;5050300;28;20151;-75
2022/05/23 00:29:31;;;;;;;6.00;4.13;;;410.30;2355.20;;;;;;5051668;28;20021;-77
2022/05/23 00:37:26;;;;;;;9.65;5.50;;;435.20;2355.20;;;;;;5052310;28;20079;-77
2022/05/23 00:39:52;;;;;;;9.23;4.90;;;435.20;2355.20;;;;;;5054602;28;20055;-77
2022/05/23 00:45:06;;;;;;;6.80;4.03;;;435.20;2355.20;;;;;;5035513;28;20032;-76
2022/05/23 00:47:35;;;;;;;7.53;3.78;;;410.40;2355.20;;;;;;5034381;28;20029;-77
2022/05/23 00:50:02;;;;;;;8.13;3.97;;;410.50;2355.20;;;;;;5034345;28;20026;-76
2022/05/23 00:52:32;;;;;;;5.25;3.63;;;410.50;2355.20;;;;;;5035838;28;20030;-76
2022/05/23 00:55:03;;;;;;;5.60;3.83;;;435.20;2355.20;;;;;;5034205;28;20029;-77
2022/05/23 00:57:33;;;;;;;7.30;4.43;;;410.50;2355.20;;;;;;5034082;28;20501;-76
2022/05/23 01:00:01;;;;;;;6.75;4.05;;;410.40;2355.20;;;;;;5035301;28;20472;-77
2022/05/23 01:02:29;;;;;;;9.60;4.40;;;410.50;2355.20;;;;;;5034067;28;20029;-78
2022/05/23 01:04:55;;;;;;;5.25;3.80;;;410.50;2355.20;;;;;;5034193;28;20502;-77
2022/05/23 01:07:21;;;;;;;6.95;3.60;;;410.40;2355.20;;;;;;5035167;28;20013;-74
2022/05/23 01:09:50;;;;;;;6.72;4.10;;;410.30;2355.20;;;;;;5033810;28;20031;-76
2022/05/23 01:12:16;;;;;;;8.40;5.72;;;410.30;2355.20;;;;;;5035603;28;20041;-76
2022/05/23 01:14:56;;;;;;;7.72;4.22;;;410.40;2355.20;;;;;;5053554;28;20048;-76
2022/05/23 01:17:23;;;;;;;6.28;4.35;;;435.20;2355.20;;;;;;5053719;28;20029;-76
2022/05/23 01:19:50;;;;;;;6.63;4.32;;;435.20;2355.20;;;;;;5053742;28;20107;-76
2022/05/23 01:22:31;;;;;;;6.63;4.05;;;435.30;2355.20;;;;;;5053707;28;20056;-76
2022/05/23 01:25:13;;;;;;;7.65;3.70;;;435.20;2355.20;;;;;;5053660;28;20111;-77
2022/05/23 01:27:40;;;;;;;7.55;4.43;;;435.20;2355.20;;;;;;5053298;28;20057;-75
2022/05/23 01:30:06;;;;;;;8.40;4.30;;;410.50;2355.20;;;;;;5054742;28;20414;-77
2022/05/23 01:32:32;;;;;;;7.40;4.45;;;435.20;2355.20;;;;;;5052995;28;20047;-77
2022/05/23 01:34:58;;;;;;;5.85;4.30;;;435.20;2355.20;;;;;;5053457;28;20029;-77
2022/05/23 01:37:25;;;;;;;9.48;5.25;;;435.20;2355.20;;;;;;5053098;28;20029;-78
2022/05/23 01:39:50;;;;;;;8.68;4.70;;;435.40;2355.20;;;;;;5054256;28;20075;-79
2022/05/23 01:42:16;;;;;;;6.32;4.65;;;435.50;2355.20;;;;;;5054899;28;20021;-79
2022/05/23 01:44:42;;;;;;;5.53;4.03;;;435.60;2355.20;;;;;;5053568;28;20059;-77
2022/05/23 01:47:14;;;;;;;6.07;4.25;;;435.70;2355.20;;;;;;5053183;28;20464;-79
2022/05/23 01:49:41;;;;;;;5.75;3.63;;;435.50;2355.20;;;;;;5054546;28;20022;-78
2022/05/23 01:52:08;;;;;;;6.30;3.88;;;435.20;2355.20;;;;;;5054444;28;20037;-79
2022/05/23 01:54:38;;;;;;;4.22;3.25;;;435.20;2355.20;;;;;;5053507;28;20046;-78
2022/05/23 01:57:07;;;;;;;4.75;4.10;;;410.40;2355.20;;;;;;5053311;28;20139;-77
2022/05/23 02:02:17;;;;;;;5.03;3.10;;;410.30;2355.20;;;;;;5054503;28;20060;-77
2022/05/23 02:04:45;;;;;;;8.63;4.32;;;410.30;2355.20;;;;;;5053051;28;20119;-77
2022/05/23 02:07:12;;;;;;;5.72;3.28;;;410.30;2355.20;;;;;;5054302;28;20040;-77
2022/05/23 02:09:38;;;;;;;5.13;3.40;;;410.40;2355.20;;;;;;5052909;28;20021;-76
2022/05/23 02:12:05;;;;;;;9.20;3.85;;;410.50;2355.20;;;;;;5052598;28;20057;-76
2022/05/23 02:14:31;;;;;;;6.70;3.80;;;435.20;2355.20;;;;;;5053885;28;20151;-76
2022/05/23 02:16:56;;;;;;;4.50;3.80;;;435.20;2355.20;;;;;;5052861;28;20123;-78
2022/05/23 02:19:22;;;;;;;6.28;3.97;;;435.20;2355.20;;;;;;5052613;28;20021;-77
2022/05/23 02:21:48;;;;;;;5.88;3.65;;;435.20;2355.20;;;;;;5052523;28;20475;-78
2022/05/23 02:24:14;;;;;;;6.28;3.45;;;410.50;2355.20;;;;;;5052500;28;20029;-76
2022/05/23 02:26:39;;;;;;;8.98;4.30;;;410.50;2355.20;;;;;;5052456;28;20078;-76
2022/05/23 02:29:08;;;;;;;5.72;3.97;;;410.40;2355.20;;;;;;5052974;28;20055;-78
2022/05/23 02:31:34;;;;;;;6.05;4.07;;;410.10;2355.20;;;;;;5052194;28;20041;-76
2022/05/23 02:34:01;;;;;;;9.88;4.47;;;410.30;2355.20;;;;;;5052315;28;20075;-77
2022/05/23 02:36:27;;;;;;;8.18;3.80;;;435.20;2355.20;;;;;;5053213;28;20025;-76
2022/05/23 02:38:54;;;;;;;5.28;3.53;;;435.30;2355.20;;;;;;5052145;28;20035;-77
2022/05/23 02:41:19;;;;;;;8.77;3.45;;;410.50;2355.20;;;;;;5050623;28;20059;-78
2022/05/23 02:43:45;;;;;;;5.57;3.88;;;410.50;2355.20;;;;;;5052245;28;20056;-78
2022/05/23 02:46:11;;;;;;;5.30;3.70;;;435.20;2355.20;;;;;;5052261;28;20025;-79
2022/05/23 02:48:37;;;;;;;11.02;3.53;;;435.30;2355.20;;;;;;5052142;28;20032;-78
2022/05/23 02:51:02;;;;;;;5.78;3.50;;;435.50;2355.20;;;;;;5051877;28;20036;-77
2022/05/23 02:53:28;;;;;;;7.43;3.40;;;435.50;2355.20;;;;;;5051353;28;20021;-78
2022/05/23 02:55:54;;;;;;;7.07;3.70;;;435.50;2355.20;;;;;;5051525;28;20040;-77
2022/05/23 02:58:20;;;;;;;6.80;3.75;;;435.50;2355.20;;;;;;5051756;28;20065;-75
2022/05/23 03:00:46;;;;;;;6.13;3.25;;;435.60;2355.20;;;;;;5051246;28;20029;-76
2022/05/23 03:03:12;;;;;;;6.22;4.28;;;435.60;2355.20;;;;;;5051667;28;20388;-76
2022/05/23 03:05:42;;;;;;;8.15;5.72;;;435.80;2355.20;;;;;;5052389;28;20120;-76
2022/05/23 03:08:10;;;;;;;9.75;4.45;;;435.90;2355.20;;;;;;5051595;28;20444;-76
2022/05/23 03:10:36;;;;;;;11.77;6.45;;;436.10;2355.20;;;;;;5052744;28;20028;-76
2022/05/23 03:13:02;;;;;;;11.27;6.95;;;436.10;2355.20;;;;;;5053096;28;20036;-75
2022/05/23 03:15:28;;;;;;;6.60;4.13;;;460.80;2380.80;;;;;;5051547;28;20103;-76
2022/05/23 03:17:54;;;;;;;8.70;4.60;;;460.80;2380.80;;;;;;5051375;28;20021;-76
2022/05/23 03:20:20;;;;;;;9.88;4.55;;;436.10;2355.20;;;;;;5051283;28;20036;-75
2022/05/23 03:28:14;;;;;;;7.38;4.55;;;435.90;2355.20;;;;;;5052526;28;20483;-75
2022/05/23 03:30:40;;;;;;;6.38;3.67;;;435.90;2355.20;;;;;;5053620;28;20045;-76
2022/05/23 03:33:07;;;;;;;8.30;4.18;;;435.90;2355.20;;;;;;5059292;28;20075;-74
2022/05/23 03:35:33;;;;;;;14.30;4.85;;;435.80;2355.20;;;;;;5060365;28;20029;-75
2022/05/23 03:38:01;;;;;;;7.88;4.13;;;436.00;2355.20;;;;;;5058570;28;20029;-76
2022/05/23 03:40:27;;;;;;;9.40;4.22;;;436.00;2355.20;;;;;;5051184;28;20055;-76
2022/05/23 03:42:54;;;;;;;5.80;4.13;;;435.90;2355.20;;;;;;5051029;28;20515;-75
2022/05/23 03:45:20;;;;;;;7.20;4.55;;;435.70;2355.20;;;;;;5051289;28;20090;-75
2022/05/23 03:47:46;;;;;;;8.07;4.30;;;435.80;2355.20;;;;;;5050817;28;20060;-76
2022/05/23 03:50:12;;;;;;;10.85;5.05;;;435.70;2355.20;;;;;;5050727;28;20029;-77
2022/05/23 03:52:38;;;;;;;7.88;4.45;;;435.60;2355.20;;;;;;5050724;28;20036;-75
2022/05/23 03:55:05;;;;;;;8.48;4.60;;;435.60;2355.20;;;;;;5050766;28;20487;-74
2022/05/23 03:57:30;;;;;;;7.45;4.00;;;435.60;2355.20;;;;;;5050738;28;20037;-77
2022/05/23 03:59:57;;;;;;;7.88;4.32;;;435.50;2355.20;;;;;;5050709;28;20486;-76
2022/05/23 04:02:23;;;;;;;7.90;3.85;;;435.70;2355.20;;;;;;5050164;28;20099;-76
2022/05/23 04:04:49;;;;;;;9.63;3.97;;;435.50;2355.20;;;;;;5051961;28;20063;-77
2022/05/23 04:07:15;;;;;;;8.30;4.22;;;435.40;2355.20;;;;;;5053837;28;20492;-79
2022/05/23 04:09:42;;;;;;;11.15;4.20;;;435.60;2355.20;;;;;;5050575;28;20112;-78
2022/05/23 04:12:07;;;;;;;6.47;4.43;;;435.60;2355.20;;;;;;5050673;28;20033;-76
2022/05/23 04:14:33;;;;;;;9.65;4.65;;;435.50;2355.20;;;;;;5053684;28;20036;-76
2022/05/23 04:16:59;;;;;;;7.32;4.07;;;435.60;2355.20;;;;;;5056273;28;20082;-78
2022/05/23 04:19:25;;;;;;;11.13;4.45;;;435.80;2355.20;;;;;;5055011;28;20032;-78
2022/05/23 04:21:51;;;;;;;8.18;3.97;;;435.90;2355.20;;;;;;5054800;28;20116;-77
2022/05/23 04:24:18;;;;;;;10.20;4.45;;;435.80;2355.20;;;;;;5054833;28;20097;-77
2022/05/23 04:26:44;;;;;;;13.27;4.97;;;435.90;2355.20;;;;;;5055807;28;20027;-80
2022/05/23 04:29:10;;;;;;;11.18;4.60;;;436.00;2355.20;;;;;;5056100;28;20400;-78
2022/05/23 04:31:37;;;;;;;9.20;3.65;;;460.90;2380.80;;;;;;5057057;28;20044;-76
2022/05/23 04:36:50;;;;;;;8.05;3.92;;;460.80;2380.80;;;;;;5057705;28;20133;-78
2022/05/23 04:39:16;;;;;;;7.05;4.97;;;460.80;2380.80;;;;;;5055153;28;20025;-78
2022/05/23 04:41:42;;;;;;;4.97;2.70;;;461.10;2380.80;;;;;;5055891;28;20025;-79
2022/05/23 04:44:08;;;;;;;4.78;3.78;;;461.30;2380.80;;;;;;5055405;28;20033;-78
2022/05/23 04:46:34;;;;;;;17.33;4.25;;;486.40;2380.80;;;;;;5053656;28;20535;-78
2022/05/23 04:51:44;;;;;;;12.07;4.10;;;486.60;2380.80;;;;;;5055210;28;20102;-79
2022/05/23 04:54:10;;;;;;;5.93;3.75;;;486.50;2380.80;;;;;;5054566;28;20021;-80
2022/05/23 04:56:37;;;;;;;6.57;3.53;;;461.60;2380.80;;;;;;5053208;28;20373;-81
2022/05/23 04:59:04;;;;;;;12.45;4.38;;;461.60;2380.80;;;;;;5052850;28;20426;-77
2022/05/23 05:01:30;;;;;;;5.97;4.15;;;461.40;2380.80;;;;;;5050047;28;20029;-79
2022/05/23 05:03:57;;;;;;;8.75;3.92;;;461.40;2380.80;;;;;;5053398;28;20028;-78
2022/05/23 05:06:23;;;;;;;8.65;3.90;;;;;;;;;;5054428;28;20100;-77
2022/05/23 05:08:50;;;;;;;8.80;4.32;;;;;;;;;;5050487;28;20076;-78
2022/05/23 05:11:16;;;;;;;9.95;4.57;;;;;;;;;;5038391;28;20083;-78
2022/05/23 05:13:43;;;;;;;9.60;4.60;;;;;;;;;;5051079;28;20062;-78
2022/05/23 05:16:09;;;;;;;11.23;4.22;;;486.50;2380.80;;;;;;5052718;28;20067;-78
2022/05/23 05:18:35;;;;;;;8.98;3.60;;;461.70;2380.80;;;;;;5053002;28;20489;-78
2022/05/23 05:21:09;;;;;;;8.32;4.20;;;461.30;2380.80;;;;;;5052965;28;20426;-79
2022/05/23 05:23:36;;;;;;;13.05;3.65;;;461.20;2380.80;;;;;;5051806;28;20116;-79
2022/05/23 05:26:04;;;;;;;13.55;3.95;;;461.20;2380.80;;;;;;5050852;28;20025;-78
2022/05/23 05:28:30;;;;;;;8.32;3.95;;;486.40;2380.80;;;;;;5046464;28;20041;-79
2022/05/23 05:31:03;;;;;;;13.48;4.32;;;486.80;2380.80;;;;;;5045755;28;20048;-78
2022/05/23 05:33:38;;;;;;;5.97;3.80;;;487.00;2380.80;;;;;;5037376;28;20506;-78
2022/05/23 05:36:11;;;;;;;7.75;4.38;;;487.20;2380.80;;;;;;5043670;28;20036;-77
2022/05/23 05:38:37;;;;;;;;;;;;;;;;;;5036735;28;20027;-81
2022/05/23 05:41:09;;;;;;;8.68;4.38;;;486.70;2380.80;;;;;;5053405;28;19901;-82
2022/05/23 05:43:39;;;;;;;11.77;5.80;;;486.70;2380.80;;;;;;5051689;28;20013;-81
2022/05/23 05:46:20;;;;;;;11.02;4.10;;;486.70;2380.80;;;;;;5054407;28;20020;-81
2022/05/23 05:48:48;;;;;;;19.40;4.68;;;;;;;;;;5053376;28;20019;-80
2022/05/23 05:51:16;;;;;;;15.13;4.72;;;;;;;;;;5054220;28;20074;-81
2022/05/23 05:53:42;;;;;;;13.25;4.38;;;;;;;;;;5052747;28;20026;-80
2022/05/23 05:56:09;;;;;;;6.75;3.75;;;487.10;2380.80;;;;;;5053120;28;20064;-79
2022/05/23 05:58:36;;;;;;;12.65;6.57;;;;;;;;;;5053119;28;20116;-80
2022/05/23 06:01:02;;;;;;;16.77;5.35;;;512.80;2380.80;;;;;;5048587;28;20022;-79
2022/05/23 06:03:28;;;;;;;15.65;4.55;;;537.60;2406.40;;;;;;5048762;28;20021;-80
2022/05/23 06:11:28;;;;;;;6.32;3.58;;;;;;;;;;5043031;28;20044;-80
2022/05/23 06:13:56;;;;;;;15.75;4.43;;;;;;;;;;5053817;28;20021;-82
2022/05/23 06:16:22;;;;;;;19.77;6.68;;;;;;;;;;5051908;28;20025;-77
2022/05/23 06:18:48;;;;;;;27.30;9.48;;;;;;;;;;5053452;28;20036;-78
2022/05/23 06:21:14;;;;;;;20.80;6.43;;;589.30;2432.00;;;;;;5054132;28;20025;-79
2022/05/23 06:23:41;;;;;;;15.13;5.55;;;589.10;2432.00;;;;;;5053025;28;20590;-79
2022/05/23 06:26:07;;;;;;;21.35;6.60;;;;;;;;;;5047174;28;20048;-78
2022/05/23 06:28:35;;;;;;;12.18;6.00;;;;;;;;;;5051819;28;20032;-77
2022/05/23 06:31:02;;;;;;;23.52;7.38;;;;;;;;;;5051505;28;20480;-79
2022/05/23 06:33:29;;;;;;;11.70;8.20;;;;;;;;;;5047503;28;20041;-83
2022/05/23 06:35:55;;;;;;;28.27;7.30;;;;;;;;;;5036016;28;20020;-79
2022/05/23 06:38:21;;;;;;;15.32;7.60;;;;;;;;;;5036543;28;20021;-81
2022/05/23 06:40:48;;;;;;;16.90;6.63;;;;;;;;;;5049332;28;20884;-81
2022/05/23 06:43:14;;;;;;;15.07;5.32;;;;;;;;;;5049363;28;20033;-80
2022/05/23 06:45:41;;;;;;;15.10;7.20;;;;;;;;;;5048808;28;20021;-78
2022/05/23 06:48:08;;;;;;;24.85;7.28;;;;;;;;;;5031138;28;20013;-79
2022/05/23 06:50:33;;;;;;;11.48;5.88;;;614.80;2432.00;;;;;;5047262;28;20104;-78
2022/05/23 06:52:59;;;;;;;17.60;5.80;;;589.10;2432.00;;;;;;5031737;28;20117;-78
2022/05/23 06:55:25;;;;;;;13.23;6.22;;;589.20;2432.00;;;;;;5031643;28;20021;-78
2022/05/23 06:57:51;;;;;;;14.65;5.90;;;614.40;2432.00;;;;;;5031228;28;20018;-78
2022/05/23 07:00:17;;;;;;;13.00;6.45;;;614.70;2432.00;;;;;;5031116;28;20017;-77
2022/05/23 07:02:43;;;;;;;12.35;5.78;;;614.70;2406.40;;;;;;5031271;28;20051;-77
2022/05/23 07:13:23;;;;;;;10.25;6.38;;;640.30;2278.40;;;;;;5033316;28;20082;-79
2022/05/23 07:15:49;;;;;;;12.77;5.43;;;640.00;2329.60;;;;;;5033289;28;20402;-79
2022/05/23 07:18:16;;;;;;;10.18;5.82;;;640.10;2355.20;;;;;;5033276;28;20022;-80
2022/05/23 07:20:42;;;;;;;61.22;12.43;;;615.30;2380.80;;;;;;5032370;28;20028;-80
2022/05/23 07:23:09;;;;;;;41.90;8.90;;;614.90;2432.00;;;;;;5032149;28;20022;-80
2022/05/23 07:25:35;;;;;;;17.15;7.72;;;589.30;2432.00;;;;;;5033283;28;20101;-80
2022/05/23 07:28:00;;;;;;;22.50;8.00;;;589.70;2432.00;;;;;;5031749;28;20069;-80
2022/05/23 07:30:26;;;;;;;17.65;7.28;;;614.70;2432.00;;;;;;5032076;28;20057;-81
2022/05/23 07:32:52;;;;;;;18.02;6.38;;;614.90;2432.00;;;;;;5031653;28;20040;-80
2022/05/23 07:35:20;;;;;;;15.13;9.82;;;615.20;2432.00;;;;;;5031773;28;20472;-81
2022/05/23 07:37:45;;;;;;;20.38;11.90;;;614.90;2432.00;;;;;;5033080;28;20022;-80
2022/05/23 07:40:12;;;;;;;15.15;7.00;;;615.30;2406.40;;;;;;5033028;28;20024;-79
2022/05/23 07:42:38;;;;;;;19.60;8.73;;;640.10;2355.20;;;;;;5031755;28;20349;-79
2022/05/23 07:45:05;;;;;;;20.40;7.75;;;640.40;2278.40;;;;;;5033032;28;20073;-80
2022/05/23 07:47:31;;;;;;;16.85;8.68;;;640.50;2252.80;;;;;;5032769;28;20456;-79
2022/05/23 07:49:57;;;;;;;13.32;9.68;;;640.60;2227.20;;;;;;5032978;28;20022;-80
2022/05/23 07:52:23;;;;;;;19.20;8.80;;;640.50;2252.80;;;;;;5031601;28;20098;-79
2022/05/23 08:00:32;;;;;;;10.90;5.85;;;615.20;2252.80;;;;;;5032563;28;20075;-79
2022/05/23 08:03:21;;;;;;;12.60;7.03;;;614.90;2304.00;;;;;;5031315;28;20018;-79
2022/05/23 08:05:47;;;;;;;16.00;10.05;;;589.70;2432.00;;;;;;5032749;28;20018;-80
2022/05/23 08:08:13;;;;;;;19.63;12.18;;;615.30;2278.40;;;;;;5031644;28;20480;-81
2022/05/23 08:10:38;;;;;;;11.25;5.45;;;640.50;2150.40;;;;;;5032999;28;20100;-84
2022/05/23 08:13:11;;;;;;;10.18;6.78;;;614.50;2355.20;;;;;;5032968;28;20034;-84
2022/05/23 08:15:38;;;;;;;12.18;6.97;;;589.10;2432.00;;;;;;5032751;28;20096;-77
2022/05/23 08:18:06;;;;;;;10.48;5.95;;;589.40;2406.40;;;;;;5048127;28;20060;-79
2022/05/23 08:20:33;;;;;;;8.15;4.82;;;615.00;2227.20;;;;;;5051766;28;20029;-78
2022/05/23 08:22:59;;;;;;;6.20;3.97;;;614.70;2278.40;;;;;;5051128;28;20438;-79
2022/05/23 08:25:25;;;;;;;9.50;4.25;;;640.20;1792.00;;;;;;5051872;28;20096;-78
2022/05/23 08:27:55;;;;;;;5.95;3.67;;;615.20;2022.40;;;;;;5051840;28;20041;-78
2022/05/23 08:30:21;;;;;;;9.27;5.30;;;614.90;2022.40;;;;;;5052109;28;20464;-78
2022/05/23 08:32:47;;;;;;;6.07;3.83;;;640.00;1945.60;;;;;;5050657;28;20044;-78
2022/05/23 08:35:13;;;;;;;24.70;19.75;;;615.30;1920.00;;;;;;5050821;28;20029;-78
2022/05/23 08:37:39;;;;;;;10.70;5.65;;;640.70;1843.20;;;;;;5050739;28;20128;-79
2022/05/23 08:40:07;;;;;;;7.70;3.88;;;;;;;;;;5050766;28;20025;-78
2022/05/23 08:42:33;;;;;;;9.50;3.90;;;;;;;;;;5052141;28;20021;-79
2022/05/23 08:45:14;;;;;;;9.40;4.72;;;640.40;1817.60;;;;;;5050843;28;20025;-79
2022/05/23 08:47:55;;;;;;;6.10;4.22;;;640.20;1817.60;;;;;;5050760;28;20032;-78
2022/05/23 08:50:46;;;;;;;6.70;3.85;;;640.20;1817.60;;;;;;5051627;28;20051;-78
2022/05/23 08:53:23;;;;;;;8.73;4.28;;;614.90;2124.80;;;;;;5050384;28;20503;-78
2022/05/23 08:55:53;;;;;;;10.48;4.20;;;615.00;2124.80;;;;;;5051830;28;20147;-78
2022/05/23 08:58:40;;;;;;;8.65;4.43;;;614.90;2048.00;;;;;;5052487;28;20025;-78
2022/05/23 09:01:14;;;;;;;10.50;4.43;;;640.40;1894.40;;;;;;5054101;28;20025;-78
2022/05/23 09:03:41;;;;;;;9.70;4.22;;;614.90;1996.80;;;;;;5054371;28;20106;-79
2022/05/23 09:06:30;;;;;;;4.72;3.28;;;615.00;1996.80;;;;;;5054186;28;20033;-77
2022/05/23 09:09:01;;;;;;;10.65;4.28;;;614.50;2124.80;;;;;;5054329;28;20167;-78
2022/05/23 09:11:52;;;;;;;7.05;4.00;;;614.80;2048.00;;;;;;5054092;28;20483;-78
2022/05/23 09:14:19;;;;;;;8.30;3.20;;;615.10;2022.40;;;;;;5053918;28;20480;-78
2022/05/23 09:16:52;;;;;;;5.47;3.03;;;589.70;2073.60;;;;;;5054042;28;20476;-78
2022/05/23 09:19:37;;;;;;;7.18;3.83;;;589.70;2124.80;;;;;;5053335;28;20029;-78
2022/05/23 09:22:14;;;;;;;8.10;3.42;;;614.80;2022.40;;;;;;5053598;28;20472;-77
2022/05/23 09:24:53;;;;;;;6.63;3.03;;;640.30;1740.80;;;;;;5053495;28;20025;-78
2022/05/23 09:27:30;;;;;;;8.65;5.22;;;615.10;1792.00;;;;;;5053181;28;20029;-77
2022/05/23 09:29:58;;;;;;;7.07;3.92;;;640.20;1792.00;;;;;;5053170;28;20028;-78
2022/05/23 09:32:46;;;;;;;6.57;3.47;;;640.00;1817.60;;;;;;5054477;28;20033;-79
2022/05/23 09:35:27;;;;;;;5.80;3.13;;;640.10;1638.40;;;;;;5053241;28;20025;-77
2022/05/23 09:38:17;;;;;;;5.97;2.58;;;615.20;1510.40;;;;;;5053544;28;20087;-78
2022/05/23 09:40:44;;;;;;;5.93;2.58;;;614.70;1510.40;;;;;;5053431;28;20064;-77
2022/05/23 09:49:01;;;;;;;8.15;2.47;;;;;;;;;;5054621;28;20060;-78
2022/05/23 09:51:27;;;;;;;4.38;3.10;;;;;;;;;;5058339;28;20044;-78
2022/05/23 09:53:54;;;;;;;4.28;2.50;;;;;;;;;;5056498;28;20029;-75
2022/05/23 09:56:29;;;;;;;4.47;2.47;;;;;;;;;;5056993;28;20111;-76
2022/05/23 09:58:56;;;;;;;7.28;2.70;;;;;;;;;;5052985;28;20025;-77
2022/05/23 10:01:30;;;;;;;8.13;2.97;;;;;;;;;;5053928;28;20104;-76
2022/05/23 10:03:56;;;;;;;4.28;2.83;;;;;;;;;;5054200;28;20021;-77
2022/05/23 10:06:34;;;;;;;5.00;2.60;;;;;;;;;;5052744;28;20429;-76
2022/05/23 10:09:00;;;;;;;7.25;3.38;;;;;;;;;;5052772;28;20021;-77
2022/05/23 10:11:29;;;;;;;6.07;3.05;;;;;;;;;;5051314;28;20040;-76
2022/05/23 10:13:58;;;;;;;5.07;3.30;;;691.30;1408.00;;;;;;5053971;28;20017;-76
2022/05/23 10:16:26;;;;;;;7.97;2.63;;;;;;;;;;5052481;28;20033;-76
2022/05/23 10:18:52;;;;;;;6.90;3.00;;;;;;;;;;5054035;28;20094;-78
2022/05/23 10:21:33;;;;;;;9.27;4.18;;;;;;;;;;5052408;28;20017;-78
2022/05/23 10:23:59;;;;;;;6.65;4.05;;;;;;;;;;5053385;28;20025;-78
2022/05/23 10:26:25;;;;;;;9.13;3.03;;;768.00;1228.80;;;;;;5052384;28;20021;-79
2022/05/23 10:29:01;;;;;;;5.20;2.70;;;;;;;;;;5051700;28;20049;-77
2022/05/23 10:31:32;;;;;;;6.18;2.75;;;742.50;1203.20;;;;;;5051765;28;20029;-79
2022/05/23 10:34:42;;;;;;;4.80;2.63;;;717.50;1177.60;;;;;;5052028;28;20082;-78
2022/05/23 10:37:32;;;;;;;6.03;2.33;;;716.90;1254.40;;;;;;5052196;28;20032;-77
2022/05/23 10:43:11;;;;;;;7.93;2.70;;;666.40;1305.60;;;;;;5011448;28;20114;-77
2022/05/23 10:45:46;;;;;;;3.88;2.40;;;;;;;;;;5046616;28;20480;-78
2022/05/23 10:48:31;;;;;;;9.32;2.97;;;;;;;;;;5052221;28;20146;-77
2022/05/23 10:51:00;;;;;;;4.78;2.75;;;;;;;;;;5054735;28;20025;-77
2022/05/23 10:53:26;;;;;;;4.97;2.80;;;;;;;;;;5060085;28;20610;-78
2022/05/23 10:55:58;;;;;;;3.65;2.20;;;;;;;;;;5057634;28;20064;-77
2022/05/23 10:58:32;;;;;;;7.60;6.43;;;;;;;;;;5052326;28;20029;-78
2022/05/23 11:01:14;;;;;;;6.38;3.20;;;;;;;;;;5051739;28;20029;-78
2022/05/23 11:03:44;;;;;;;16.70;13.88;;;691.90;1382.40;;;;;;5050753;28;20055;-79
2022/05/23 11:06:20;;;;;;;7.55;3.47;;;716.80;1382.40;;;;;;5051072;28;20496;-77
2022/05/23 11:09:20;;;;;;;6.05;3.30;;;692.10;1356.80;;;;;;5051250;28;20037;-77
2022/05/23 11:11:52;;;;;;;9.18;7.22;;;665.80;1433.60;;;;;;5051398;28;20048;-79
2022/05/23 11:14:38;;;;;;;6.53;3.55;;;666.50;1433.60;;;;;;5051434;28;20564;-81
2022/05/23 11:17:32;;;;;;;10.57;6.13;;;691.50;1408.00;;;;;;5053252;28;20513;-81
2022/05/23 11:20:21;;;;;;;3.85;2.67;;;692.00;1408.00;;;;;;5053054;28;20055;-78
2022/05/23 11:23:02;;;;;;;4.20;3.15;;;665.60;1484.80;;;;;;5051658;28;20033;-79
2022/05/23 11:25:30;;;;;;;7.35;3.17;;;;;;;;;;5051424;28;20047;-77
2022/05/23 11:33:45;;;;;;;6.78;3.28;;;;;;;;;;5052330;28;20048;-79
2022/05/23 11:36:15;;;;;;;8.98;4.15;;;;;;;;;;5050791;28;20070;-82
2022/05/23 11:38:45;;;;;;;6.28;4.13;;;;;;;;;;5051004;28;20017;-79
2022/05/23 11:41:53;;;;;;;7.88;4.35;;;691.50;1433.60;;;;;;5052789;28;20476;-81
2022/05/23 11:44:44;;;;;;;12.70;9.63;;;691.70;1408.00;;;;;;5047705;28;20141;-79
2022/05/23 11:47:13;;;;;;;10.90;4.40;;;;;;;;;;5031949;28;20029;-78
2022/05/23 11:49:42;;;;;;;12.02;4.65;;;742.90;1356.80;;;;;;5032946;28;20025;-77
2022/05/23 11:52:24;;;;;;;7.75;3.83;;;;;;;;;;5031048;28;20040;-76
2022/05/23 11:54:50;;;;;;;6.38;3.78;;;;;;;;;;5031348;28;20494;-82
2022/05/23 11:57:29;;;;;;;9.40;4.13;;;;;;;;;;5031520;28;20436;-78
2022/05/23 11:59:56;;;;;;;7.15;4.47;;;;;;;;;;5031389;28;20032;-77
2022/05/23 12:02:24;;;;;;;6.18;3.90;;;;;;;;;;5031522;28;20025;-79
2022/05/23 12:04:51;;;;;;;6.38;4.05;;;;;;;;;;5031402;28;20116;-79
2022/05/23 12:07:39;;;;;;;11.75;5.60;;;;;;;;;;5031494;28;20951;-77
2022/05/23 12:10:28;;;;;;;56.70;13.60;;;;;;;;;;5030316;28;20036;-76
2022/05/23 12:13:13;;;;;;;17.48;7.65;;;;;;;;;;5030550;28;20391;-78
2022/05/23 12:15:48;;;;;;;9.50;4.63;;;;;;;;;;5031775;28;20025;-78
2022/05/23 12:18:23;;;;;;;13.55;5.60;;;;;;;;;;5030734;28;20021;-77
2022/05/23 12:20:50;;;;;;;7.45;5.30;;;;;;;;;;5030885;28;20030;-77
2022/05/23 12:23:18;;;;;;;5.05;3.35;;;;;;;;;;5030998;28;20120;-78
2022/05/23 12:26:04;;;;;;;10.60;4.45;;;;;;;;;;5031068;28;20025;-77
2022/05/23 12:28:42;;;;;;;10.32;6.50;;;;;;;;;;5030993;28;20434;-81
2022/05/23 12:31:12;;;;;;;24.40;9.10;;;;;;;;;;5032117;28;20025;-78
2022/05/23 12:33:41;;;;;;;6.30;3.65;;;;;;;;;;5032304;28;20022;-77
2022/05/23 12:36:08;;;;;;;9.40;4.35;;;;;;;;;;5034993;28;20026;-77
2022/05/23 12:38:41;;;;;;;7.07;4.10;;;;;;;;;;5036239;28;20083;-78
2022/05/23 12:41:32;;;;;;;6.55;4.28;;;640.80;1536.00;;;;;;5034997;28;20053;-79
2022/05/23 12:44:01;;;;;;;10.50;6.15;;;;;;;;;;5035186;28;20029;-77
2022/05/23 12:46:46;;;;;;;8.90;4.65;;;;;;;;;;5034736;28;20037;-78
2022/05/23 12:49:17;;;;;;;10.18;7.70;;;;;;;;;;5034930;28;20028;-78
2022/05/23 12:52:06;;;;;;;9.63;3.75;;;;;;;;;;5034591;28;20084;-78
2022/05/23 12:54:41;;;;;;;11.73;4.90;;;;;;;;;;5024634;28;20033;-78
2022/05/23 12:57:25;;;;;;;12.75;6.80;;;;;;;;;;5034732;28;20183;-79
2022/05/23 13:00:13;;;;;;;12.00;5.13;;;;;;;;;;5034495;28;20080;-78
2022/05/23 13:02:59;;;;;;;27.33;7.50;;;;;;;;;;5030609;28;20112;-76
2022/05/23 13:05:30;;;;;;;11.95;8.95;;;;;;;;;;5033681;28;20063;-75
2022/05/23 13:08:02;;;;;;;9.80;5.28;;;;;;;;;;5035309;28;20063;-76
2022/05/23 13:10:36;;;;;;;7.97;4.35;;;;;;;;;;5033083;28;20457;-77
2022/05/23 13:13:24;;;;;;;66.72;13.18;;;;;;;;;;5052937;28;20492;-77
2022/05/23 13:15:50;;;;;;;22.92;5.55;;;;;;;;;;5053990;28;20480;-77
2022/05/23 13:23:47;;;;;;;69.57;13.25;;;;;;;;;;5054545;28;20064;-78
2022/05/23 13:26:13;;;;;;;22.40;10.02;;;;;;;;;;5054204;28;20025;-78
2022/05/23 13:28:44;;;;;;;50.60;12.35;;;;;;;;;;5052700;28;20071;-77
2022/05/23 13:31:23;;;;;;;27.13;9.45;;;;;;;;;;5054329;28;20075;-78
2022/05/23 13:33:49;;;;;;;53.25;10.43;;;;;;;;;;5054432;28;20326;-79
2022/05/23 13:36:15;;;;;;;49.65;10.40;;;;;;;;;;5054002;28;20389;-78
2022/05/23 13:38:43;;;;;;;18.92;6.25;;;;;;;;;;5054381;28;20040;-76
2022/05/23 13:41:25;;;;;;;21.60;7.38;;;;;;;;;;5052835;28;20021;-78
2022/05/23 13:43:51;;;;;;;7.15;4.32;;;;;;;;;;5052552;28;20619;-74
2022/05/23 13:46:29;;;;;;;10.95;5.38;;;;;;;;;;5052916;28;20082;-74
2022/05/23 13:49:02;;;;;;;15.80;6.78;;;743.00;1459.20;;;;;;5052916;28;20116;-77
2022/05/23 13:51:28;;;;;;;;;;;;;;;;;;5053009;28;20040;-78
2022/05/23 13:54:23;;;;;;;12.75;7.00;;;;;;;;;;5053916;28;19905;-75
2022/05/23 13:56:54;;;;;;;10.77;6.90;;;;;;;;;;5048135;28;20128;-79
2022/05/23 13:59:23;;;;;;;16.42;10.18;;;;;;;;;;5053978;28;20060;-78
2022/05/23 14:02:00;;;;;;;12.18;7.85;;;;;;;;;;5052384;28;20021;-78
2022/05/23 14:04:28;;;;;;;10.18;6.35;;;;;;;;;;5052237;28;20076;-78
2022/05/23 14:07:01;;;;;;;12.15;5.05;;;;;;;;;;5053994;28;20456;-77
2022/05/23 14:09:27;;;;;;;8.15;4.50;;;;;;;;;;5053615;28;20024;-79
2022/05/23 14:11:54;;;;;;;9.65;7.13;;;;;;;;;;5052207;28;20531;-76